地図

経路データ

SID SEASON NUMBER BASIN SUBBASIN NAME ISO_TIME NATURE LAT LON WMO_WIND WMO_PRES WMO_AGENCY TRACK_TYPE DIST2LAND LANDFALL IFLAG USA_AGENCY USA_ATCF_ID USA_LAT USA_LON USA_RECORD USA_STATUS USA_WIND USA_PRES USA_SSHS USA_R34_NE USA_R34_SE USA_R34_SW USA_R34_NW USA_R50_NE USA_R50_SE USA_R50_SW USA_R50_NW USA_R64_NE USA_R64_SE USA_R64_SW USA_R64_NW USA_POCI USA_ROCI USA_RMW USA_EYE TOKYO_LAT TOKYO_LON TOKYO_GRADE TOKYO_WIND TOKYO_PRES TOKYO_R50_DIR TOKYO_R50_LONG TOKYO_R50_SHORT TOKYO_R30_DIR TOKYO_R30_LONG TOKYO_R30_SHORT TOKYO_LAND CMA_LAT CMA_LON CMA_CAT CMA_WIND CMA_PRES HKO_LAT HKO_LON HKO_CAT HKO_WIND HKO_PRES NEWDELHI_LAT NEWDELHI_LON NEWDELHI_GRADE NEWDELHI_WIND NEWDELHI_PRES NEWDELHI_CI NEWDELHI_DP NEWDELHI_POCI REUNION_LAT REUNION_LON REUNION_TYPE REUNION_WIND REUNION_PRES REUNION_TNUM REUNION_CI REUNION_RMW REUNION_R34_NE REUNION_R34_SE REUNION_R34_SW REUNION_R34_NW REUNION_R50_NE REUNION_R50_SE REUNION_R50_SW REUNION_R50_NW REUNION_R64_NE REUNION_R64_SE REUNION_R64_SW REUNION_R64_NW BOM_LAT BOM_LON BOM_TYPE BOM_WIND BOM_PRES BOM_TNUM BOM_CI BOM_RMW BOM_R34_NE BOM_R34_SE BOM_R34_SW BOM_R34_NW BOM_R50_NE BOM_R50_SE BOM_R50_SW BOM_R50_NW BOM_R64_NE BOM_R64_SE BOM_R64_SW BOM_R64_NW BOM_ROCI BOM_POCI BOM_EYE BOM_POS_METHOD BOM_PRES_METHOD NADI_LAT NADI_LON NADI_CAT NADI_WIND NADI_PRES WELLINGTON_LAT WELLINGTON_LON WELLINGTON_WIND WELLINGTON_PRES DS824_LAT DS824_LON DS824_STAGE DS824_WIND DS824_PRES TD9636_LAT TD9636_LON TD9636_STAGE TD9636_WIND TD9636_PRES TD9635_LAT TD9635_LON TD9635_WIND TD9635_PRES TD9635_ROCI NEUMANN_LAT NEUMANN_LON NEUMANN_CLASS NEUMANN_WIND NEUMANN_PRES MLC_LAT MLC_LON MLC_CLASS MLC_WIND MLC_PRES USA_GUST BOM_GUST BOM_GUST_PER REUNION_GUST REUNION_GUST_PER USA_SEAHGT USA_SEARAD_NE USA_SEARAD_SE USA_SEARAD_SW USA_SEARAD_NW STORM_SPEED STORM_DIR
1974327N11088 1974 135 NI BB NOT_NAMED 1974-11-23 00:00:00 TS 10.6000 88.3000 main 789 789 O________OO___ jtwc_io IO121974 10.6000 88.3000 -1 10.6000 88.3000 TC 10.6000 88.3000 1 0 0
1974327N11088 1974 135 NI BB NOT_NAMED 1974-11-23 03:00:00 TS 10.6026 88.3073 main 789 789 P________PP___ IO121974 10.6000 88.3250 -1 10.6000 88.3250 TC 10.6078 88.2720 1 0 0
1974327N11088 1974 135 NI BB NOT_NAMED 1974-11-23 06:00:00 TS 10.6042 88.2751 main 789 779 O________OP___ jtwc_io IO121974 10.6000 88.3000 -1 10.6000 88.3000 TC 10.6125 88.2252 1 1 270
1974327N11088 1974 135 NI BB NOT_NAMED 1974-11-23 09:00:00 TS 10.6036 88.1719 main 779 759 P________PP___ IO121974 10.6000 88.1875 -1 10.6000 88.1875 TC 10.6109 88.1408 1 3 269
1974327N11088 1974 135 NI BB NOT_NAMED 1974-11-23 12:00:00 TS 10.6000 88.0000 main 759 739 O________OO___ jtwc_io IO121974 10.6000 88.0000 -1 10.6000 88.0000 TC 10.6000 88.0000 1 4 268
1974327N11088 1974 135 NI BB NOT_NAMED 1974-11-23 15:00:00 TS 10.5932 87.7830 main 739 710 P________PP___ IO121974 10.6000 87.7800 -1 10.6000 87.7800 TC 10.5796 87.7888 1 5 269
1974327N11088 1974 135 NI BB NOT_NAMED 1974-11-23 18:00:00 TS 10.5875 87.5041 main 710 680 O________OP___ jtwc_io IO121974 10.6000 87.5000 -1 10.6000 87.5000 TC 10.5624 87.5121 1 6 269
1974327N11088 1974 135 NI BB NOT_NAMED 1974-11-23 21:00:00 TS 10.5779 87.1797 main 680 641 P________PP___ IO121974 10.5850 87.1799 -1 10.5850 87.1799 TC 10.5639 87.1794 1 7 271
1974327N11088 1974 135 NI BB NOT_NAMED 1974-11-24 00:00:00 TS 10.6000 86.8000 main 641 606 O________OO___ jtwc_io IO121974 10.6000 86.8000 -1 10.6000 86.8000 TC 10.6000 86.8000 2 8 277
1974327N11088 1974 135 NI BB NOT_NAMED 1974-11-24 03:00:00 TS 10.6747 86.3622 main 606 562 P________PP___ IO121974 10.6775 86.3650 -1 10.6775 86.3650 TC 10.6691 86.3567 2 9 282
1974327N11088 1974 135 NI BB NOT_NAMED 1974-11-24 06:00:00 TS 10.7919 85.8925 main 562 520 O________OP___ jtwc_io IO121974 10.8000 85.9000 -1 10.8000 85.9000 TC 10.7756 85.8777 2 10 285
1974327N11088 1974 135 NI BB NOT_NAMED 1974-11-24 09:00:00 TS 10.9298 85.4166 main 520 495 P________PP___ IO121974 10.9350 85.4200 -1 10.9350 85.4200 TC 10.9192 85.4098 2 9 289
1974327N11088 1974 135 NI BB NOT_NAMED 1974-11-24 12:00:00 TS 11.1000 85.0000 main 495 474 O________OO___ jtwc_io IO121974 11.1000 85.0000 -1 11.1000 85.0000 TC 11.1000 85.0000 2 8 297
1974327N11088 1974 135 NI BB NOT_NAMED 1974-11-24 15:00:00 TS 11.2814 84.7009 main 481 468 P________PP___ IO121974 11.2774 84.7124 -1 11.2774 84.7124 TC 11.2894 84.6779 2 7 308
1974327N11088 1974 135 NI BB NOT_NAMED 1974-11-24 18:00:00 TS 11.5057 84.4742 main 474 452 O________OP___ jtwc_io IO121974 11.5000 84.5000 XX 35 -5 11.5000 84.5000 TC 35 11.5172 84.4226 2 7 319
1974327N11088 1974 135 NI BB NOT_NAMED 1974-11-24 21:00:00 TS 11.7755 84.2620 main 452 426 P________PP___ IO121974 11.7700 84.2775 XX 37 -5 11.7700 84.2775 TC 37 11.7864 84.2310 2 7 328
1974327N11088 1974 135 NI BB NOT_NAMED 1974-11-25 00:00:00 TS 12.1000 84.1000 main 426 411 O________OO___ jtwc_io IO121974 12.1000 84.1000 XX 40 -5 12.1000 84.1000 TC 40 12.1000 84.1000 2 8 338
1974327N11088 1974 135 NI BB NOT_NAMED 1974-11-25 03:00:00 TS 12.4931 83.9579 main 411 392 P________PP___ IO121974 12.4850 83.9625 XX 42 -5 12.4850 83.9625 TC 42 12.5094 83.9486 2 8 346
1974327N11088 1974 135 NI BB NOT_NAMED 1974-11-25 06:00:00 TS 12.9173 83.8876 main 392 389 O________OP___ jtwc_io IO121974 12.9000 83.9000 XX 45 -5 12.9000 83.9000 TC 45 12.9520 83.8627 2 9 355
1974327N11088 1974 135 NI BB NOT_NAMED 1974-11-25 09:00:00 TS 13.3528 83.8735 main 389 372 P________PP___ IO121974 13.3449 83.8750 XX 45 -5 13.3449 83.8750 TC 45 13.3686 83.8704 2 8 8
1974327N11088 1974 135 NI BB NOT_NAMED 1974-11-25 12:00:00 TS 13.7000 84.0000 main 372 368 O________OO___ jtwc_io IO121974 13.7000 84.0000 XX 45 -5 13.7000 84.0000 TC 45 13.7000 84.0000 4 7 43
1974327N11088 1974 135 NI BB NOT_NAMED 1974-11-25 15:00:00 TS 13.8473 84.3406 main 379 377 P________PP___ IO121974 13.8526 84.3475 XX 47 -5 13.8526 84.3475 TC 47 13.8367 84.3267 4 8 76
1974327N11088 1974 135 NI BB NOT_NAMED 1974-11-25 18:00:00 TS 13.8962 84.7876 main 404 404 O________OP___ jtwc_io IO121974 13.9000 84.8000 XX 50 -5 13.9000 84.8000 TC 50 13.8887 84.7628 4 9 85
1974327N11088 1974 135 NI BB NOT_NAMED 1974-11-25 21:00:00 TS 13.9254 85.2359 main 433 433 P________PP___ IO121974 13.9276 85.2451 XX 52 -5 13.9276 85.2451 TC 52 13.9211 85.2174 4 8 83
1974327N11088 1974 135 NI BB NOT_NAMED 1974-11-26 00:00:00 TS 14.0000 85.6000 main 458 452 O________OO___ jtwc_io IO121974 14.0000 85.6000 XX 55 -5 14.0000 85.6000 TC 55 14.0000 85.6000 4 6 61
1974327N11088 1974 135 NI BB NOT_NAMED 1974-11-26 03:00:00 TS 14.2072 85.7535 main 461 442 P________PP___ IO121974 14.2124 85.7451 XX 57 -5 14.2124 85.7451 TC 57 14.1967 85.7704 4 5 24
1974327N11088 1974 135 NI BB NOT_NAMED 1974-11-26 06:00:00 TS 14.4840 85.8202 main 442 425 O________OP___ jtwc_io IO121974 14.5000 85.8000 XX 60 -5 14.5000 85.8000 TC 60 14.4520 85.8607 4 6 14
1974327N11088 1974 135 NI BB NOT_NAMED 1974-11-26 09:00:00 TS 14.7754 85.9019 main 425 409 P________PP___ IO121974 14.7850 85.8926 XX 60 -5 14.7850 85.8926 TC 60 14.7562 85.9206 4 6 15
1974327N11088 1974 135 NI BB NOT_NAMED 1974-11-26 12:00:00 TS 15.1000 86.0000 main 409 388 O________OO___ jtwc_io IO121974 15.1000 86.0000 XX 60 -5 15.1000 86.0000 TC 60 15.1000 86.0000 4 7 19
1974327N11088 1974 135 NI BB NOT_NAMED 1974-11-26 15:00:00 TS 15.4261 86.1290 main 388 364 P________PP___ IO121974 15.4275 86.1276 XX 60 -5 15.4275 86.1276 TC 60 15.4232 86.1317 4 8 22
1974327N11088 1974 135 NI BB NOT_NAMED 1974-11-26 18:00:00 TS 15.7957 86.2990 main 364 346 O________OP___ jtwc_io IO121974 15.8000 86.3000 XX 60 -5 15.8000 86.3000 TC 60 15.7871 86.2969 4 9 25
1974327N11088 1974 135 NI BB NOT_NAMED 1974-11-26 21:00:00 TS 16.2057 86.5081 main 346 330 P________PP___ IO121974 16.2049 86.5054 XX 62 -5 16.2049 86.5054 TC 62 16.2074 86.5135 4 10 28
1974327N11088 1974 135 NI BB NOT_NAMED 1974-11-27 00:00:00 TS 16.7000 86.8000 main 330 313 O________OO___ jtwc_io IO121974 16.7000 86.8000 XX 65 -5 16.7000 86.8000 TC 65 16.7000 86.8000 4 13 31
1974327N11088 1974 135 NI BB NOT_NAMED 1974-11-27 03:00:00 TS 17.3171 87.2122 main 313 262 P________PP___ IO121974 17.3201 87.2199 XX 67 -5 17.3201 87.2199 TC 67 17.3112 87.1967 4 16 33
1974327N11088 1974 135 NI BB NOT_NAMED 1974-11-27 06:00:00 TS 17.9953 87.6867 main 262 237 O________OP___ jtwc_io IO121974 18.0000 87.7000 XX 70 -5 18.0000 87.7000 TC 70 17.9859 87.6600 4 16 34
1974327N11088 1974 135 NI BB NOT_NAMED 1974-11-27 09:00:00 TS 18.6759 88.1628 main 238 222 P________PP___ IO121974 18.6800 88.1724 XX 70 -5 18.6800 88.1724 TC 70 18.6676 88.1436 4 16 34
1974327N11088 1974 135 NI BB NOT_NAMED 1974-11-27 12:00:00 TS 19.3000 88.6000 main 228 201 O________OO___ jtwc_io IO121974 19.3000 88.6000 XX 70 -5 19.3000 88.6000 TC 70 19.3000 88.6000 4 13 33
1974327N11088 1974 135 NI BB NOT_NAMED 1974-11-27 15:00:00 TS 19.7820 88.9314 main 201 156 P________PP___ IO121974 19.7798 88.9156 XX 72 -5 19.7798 88.9156 TC 72 19.7866 88.9629 4 11 33
1974327N11088 1974 135 NI BB NOT_NAMED 1974-11-27 18:00:00 TS 20.2072 89.2300 main 156 119 O________OP___ jtwc_io IO121974 20.2000 89.2000 XX 75 -5 20.2000 89.2000 TC 75 20.2217 89.2902 4 10 35
1974327N11088 1974 135 NI BB NOT_NAMED 1974-11-27 21:00:00 TS 20.6387 89.5658 main 123 78 P________PP___ IO121974 20.6350 89.5502 XX 72 -5 20.6350 89.5502 TC 72 20.6460 89.5972 4 11 35
1974327N11088 1974 135 NI BB NOT_NAMED 1974-11-28 00:00:00 TS 21.1000 89.9000 main 78 22 O________OO___ jtwc_io IO121974 21.1000 89.9000 XX 70 -5 21.1000 89.9000 TC 70 21.1000 89.9000 4 12 31
1974327N11088 1974 135 NI BB NOT_NAMED 1974-11-28 03:00:00 TS 21.6230 90.2042 main 22 0 P________PP___ IO121974 21.6274 90.2004 XX 67 -5 21.6274 90.2004 TC 67 21.6143 90.2119 4 12 27
1974327N11088 1974 135 NI BB NOT_NAMED 1974-11-28 06:00:00 TS 22.1936 90.5114 main 0 0 O________OP___ jtwc_io IO121974 22.2000 90.5000 XX 65 -5 22.2000 90.5000 TC 65 22.1809 90.5341 4 13 27
1974327N11088 1974 135 NI BB NOT_NAMED 1974-11-28 09:00:00 TS 22.7908 90.8459 main 0 0 P________PP___ IO121974 22.7952 90.8368 XX -5 22.7952 90.8368 TC 22.7820 90.8642 4 14 28
1974327N11088 1974 135 NI BB NOT_NAMED 1974-11-28 12:00:00 TS 23.4000 91.2000 main 0 O________OO___ jtwc_io IO121974 23.4000 91.2000 -1 23.4000 91.2000 TC 23.4000 91.2000 6 14 28

IBTrACS Databaseについて

本データベースは、米国NOAAが公開する1842年以降の世界の熱帯低気圧のベストトラックデータアーカイブInternational Best Track Archive for Climate Stewardship (IBTrACS)を、ウェブで閲覧しやすい形式に変換したものです。

最終更新日:2021-10-08